dimanche 19 novembre 2017

Le classement original se trouve sur : http://www.couriraliege.be/
 
LES 10 MILES DU THIER À LIÈGE
DISTANCE : 6.98 km
dimanche 19 novembre 2017
 
Place dos NOM Catégorie Pl/cat temps temps/km Vitesse
1 3795 PHILIPPE BRISY VÉT1 1 0:27:56 04:00 15.00
2 3796 VINCENT CORNEROTTE SENIORS 1 0:28:42 04:07 14.60
3 3862 DIDIER LOPEZ VÉT1 2 0:28:56 04:09 14.48
4 3750 JONATHAN ROBERT SENIORS 2 0:29:17 04:12 14.31
5 3809 COLIN HUTSCHEMAKERS GARÇON 12<>15 1 0:29:24 04:13 14.25
6 3844 JOSUA ROBERT NICAUD SENIORS 3 0:29:32 04:14 14.19
7 3840 J IDES KAYUHURA SENIORS 4 0:30:01 04:18 13.96
8 3824 CYRIL BEINE ESPH 1 0:31:30 04:31 13.30
9 3779 KEVIN MIÉVIS SENIORS 5 0:31:39 04:32 13.24
10 4225 JEAN LUC BOVI VÉT1 3 0:31:56 04:34 13.12
11 3812 JEAN WEERTS VÉT1 4 0:32:29 04:39 12.90
12 3817 CHLOE BREVER ESPD 1 0:32:52 04:42 12.75
13 3799 ADRIEN MAIRLOT GARÇON 12<>15 2 0:33:00 04:44 12.70
14 3774 XAVIER HAVART VÉT1 5 0:33:36 04:49 12.47
15 3870 FABIAN MOSBEUX SENIORS 6 0:33:54 04:51 12.36
16 3884 MODAVE MARC SENIORS 7 0:34:24 04:56 12.18
17 3866 ELOISE SENARD FILLES 12<>15 1 0:34:31 04:57 12.14
18 3760 JACQUES BASTAGNE VÉT1 6 0:34:31 04:57 12.14
19 3767 DAMIANO DE GRANDIS SENIORS 8 0:34:58 05:00 11.98
20 3764 LAURENT BRISBOIS ESPH 2 0:35:01 05:01 11.97
21 3793 PASCAL SAVELBERG VÉT1 7 0:35:18 05:03 11.87
22 3826 ROBERT GILLES VÉT1 8 0:35:34 05:06 11.78
23 3788 RICHARD MATHOT VÉT3 1 0:36:16 05:12 11.55
24 3802 OLIVIER BALTHASART SENIORS 9 0:36:18 05:12 11.54
25 3801 CHRISTOPHE DEDRY SENIORS 10 0:36:18 05:12 11.54
26 3753 LOUISE LEFORT FILLES 1 0:36:20 05:12 11.53
27 3776 NATHALIE LEKEUX AIN1 1 0:36:33 05:14 11.46
28 3856 LUC BAILLY VÉT2 1 0:36:33 05:14 11.46
29 3825 GAELLE VAN BUYLAERE AIN1 2 0:37:05 05:19 11.30
30 3815 PHILIPPE GHEURY VÉT1 9 0:37:17 05:20 11.24
31 3879 RENE DUFOUR VÉT2 2 0:37:21 05:21 11.22
32 3768 LAURA DENOOZ DAMES 1 0:37:21 05:21 11.22
33 3784 PASCALE RUBERTO VÉT3 2 0:37:32 05:22 11.16
34 3863 MARIANNE DUMONT AIN1 3 0:38:25 05:30 10.91
35 3785 JEAN LUC DEWIL VÉT2 3 0:38:25 05:30 10.91
36 3805 CAROLINE DEGBOMONT AIN1 4 0:38:43 05:33 10.82
37 3843 GILLES NERRINCK SENIORS 11 0:38:58 05:35 10.75
38 3854 LORRAINE MAQUET DAMES 2 0:39:19 05:38 10.66
39 3877 MAXIME WILKIN SENIORS 12 0:39:38 05:41 10.57
40 3872 LEON POLGEN GARÇON 1 0:39:53 05:43 10.51
41 3873 OLIVIER PALGEN VÉT1 10 0:39:53 05:43 10.51
42 3885 YVES LUCAS SENIORS 13 0:40:02 05:44 10.47
43 3858 MATHIEU BERTHA SENIORS 14 0:40:09 05:45 10.44
44 3797 ISABELLE VRANCKEN AIN1 5 0:40:17 05:46 10.40
45 3842 KEVIN NERRINCK SENIORS 15 0:40:22 05:47 10.38
46 3787 ARNO DEFECHEREUX GARÇON 2 0:40:31 05:48 10.34
47 3878 AMERIGO OLIVIERI VÉT3 3 0:40:33 05:48 10.33
48 3759 GEOFFRAY LEYMAN VÉT1 11 0:40:42 05:50 10.29
49 3881 ROMAIN GAUDRON SENIORS 16 0:40:42 05:50 10.29
50 3810 JONATHAN ANDRIEUX SENIORS 17 0:40:46 05:50 10.28
51 3867 NATHALIE ARNOULD AIN1 6 0:40:54 05:51 10.24
52 3868 MARC SENARD VÉT2 4 0:40:54 05:51 10.24
53 3804 JF DOGNEE SENIORS 18 0:40:58 05:52 10.23
54 3846 MANTAS HORCAS PEDRO SENIORS 19 0:41:02 05:53 10.21
55 3865 SEVERINE PIRARD DAMES 3 0:41:12 05:54 10.17
56 3839 FANNY BLAVIER DAMES 4 0:41:29 05:56 10.10
57 3811 MARC WERMIERDT VÉT2 5 0:41:52 06:00 10.01
58 3803 DIDIER GUILLEMARD VÉT3 4 0:41:54 06:00 10.00
59 3876 MAXIME REYNDERS SENIORS 20 0:41:56 06:00 9.99
60 3772 SOPHIE FONTAINE DAMES 5 0:42:24 06:04 9.88
61 3763 ROLAND BRION VÉT1 12 0:42:39 06:06 9.82
62 3792 JEAN CLAUDE ONSSELS VÉT3 5 0:42:55 06:09 9.76
63 3816 CECILE MATRICHE AIN1 7 0:43:11 06:11 9.70
64 3813 FLORIANE DEFAYS DAMES 6 0:43:24 06:13 9.65
65 3830 QUENTIN GAVA GARÇON 12<>15 3 0:43:28 06:13 9.64
66 3783 XXX XXX   0:43:42 06:15 9.59
67 3831 GERARD HABAUT VÉT2 6 0:43:47 06:16 9.57
68 3869 LORENE CELAURO DAMES 7 0:44:22 06:21 9.44
69 3836 LUDOVIC DASSY SENIORS 21 0:44:29 06:22 9.42
70 3823 GILLES LHOIST VÉT1 13 0:44:59 06:26 9.31
71 3820 PATRICK VAN HUFFEL XXX   0:44:59 06:26 9.31
72 3851 WANDA MICHELSON AIN1 8 0:45:20 06:29 9.24
73 3850 EM BARON VÉT2 7 0:45:20 06:29 9.24
74 3860 WILLIAM MANDREOLI SENIORS 22 0:45:27 06:31 9.22
75 3758 MARIE MATAGNE AIN1 9 0:45:41 06:33 9.17
76 3807 NOA PEREIRA GARÇON 12<>15 4 0:45:54 06:34 9.13
77 3852 MAGGY PALMAERTS AIN2 1 0:45:54 06:34 9.13
78 3829 SOPHIE GRAIDORGE AIN1 10 0:46:07 06:36 9.09
79 3059 BERNADETTE CRASSET AIN2 2 0:46:11 06:37 9.07
80 3762 JULIE BARBIER DAMES 8 0:46:23 06:39 9.03
81 3808 SAMUEL PEREIRA SENIORS 23 0:46:27 06:39 9.02
82 3857 JULIE SCHAUS DAMES 9 0:46:37 06:41 8.99
83 3828 LAURENT PESTILENSE SENIORS 24 0:46:46 06:42 8.96
84 3855 JULIE HARUENGT DAMES 10 0:46:47 06:42 8.96
85 3853 GENEVIEVE SCHMETZ AIN2 3 0:47:27 06:48 8.83
86 3751 XXX XXX   0:47:27 06:48 8.83
87 3794 ANNE MULS AIN3 1 0:47:34 06:49 8.81
88 3874 ALEXANDRE BOROWSKI SENIORS 25 0:48:19 06:55 8.67
89 3875 CAROLINE DEFOUR DAMES 11 0:48:19 06:55 8.67
90 3871 JUSTINE SIMON DAMES 12 0:48:32 06:57 8.63
91 3780 THI TUYET MINH NGUYEN DAMES 13 0:49:26 07:05 8.48
92 3757 XXX XXX   0:49:55 07:09 8.39
93 3756 XXX XXX   0:49:55 07:09 8.39
94 3791 PINO POLLARA VÉT2 8 0:50:27 07:13 8.31
95 3819 ALBERT FAILON VÉT3 6 0:50:41 07:15 8.27
96 3882 ALEXANDRE GERARDY SENIORS 26 0:51:10 07:20 8.19
97 3859 JORDAN CAPITANO SENIORS 27 0:51:20 07:21 8.16
98 3883 JEANNE DAUBIT DAMES 14 0:52:29 07:31 7.98
99 3880 AMELIE CREMERS DAMES 15 0:52:29 07:31 7.98
100 3761 JULIETTE POZZI AIN1 11 0:53:41 07:41 7.81
101 3755 XXX XXX   0:53:41 07:41 7.81
102 3777 JULIE MARSOUL DAMES 16 0:53:56 07:43 7.77
103 3827 CHARLOTTE SCHAGES DAMES 17 0:54:00 07:44 7.76
104 3821 ESTELLE LHOIST XXX   0:54:16 07:46 7.72
105 3832 VANESSA CALENDE DAMES 18 0:54:38 07:49 7.67
106 3814 VERONIQUE BERGER AIN1 12 0:55:12 07:54 7.59
107 3769 LAURENCE DESONNAY DAMES 19 0:56:53 08:09 7.37
108 3848 CORALINE DERY DAMES 20 0:57:07 08:11 7.34
109 3754 XXX XXX   0:57:26 08:13 7.30
110 3789 CECILE VOLPE DAMES 21 0:57:27 08:14 7.29
111 3798 BERNADETTE WATHELET AIN2 4 0:58:48 08:25 7.13
112 3786 CHRISTIAN HAUTECLER VÉT3 7 1:00:08 08:37 6.97
113 3837 AURELIE MARAVENTANO DAMES 22 1:01:43 08:50 6.79
114 3770 ANNE DETHIER AIN3 2 1:02:52 09:00 6.66
115 3838 CASSANDRA MARAVENTANO DAMES 23 1:04:56 09:18 6.45